Wetterstation Oberdrees
Wetterdaten: aktuell Montag, 25.09.2023 12:55
Datum Zeit Temp. A. Feuchte A. Luftdruck Regen Wind Richtung Richtung Taupunkt Windchill Windben
25.09.2023 12:55 21,0 C 58 % 1023,6 hPa 0,0 l/m 4,0 km/h (1 Bft) O-SO 114 12,4 C 21,0 C 9,7 km/h (2 Bft)
25.09.2023 12:50 20,8 C 57 % 1023,7 hPa 0,0 l/m 3,7 km/h (1 Bft) O 98 12,0 C 20,8 C 9,7 km/h (2 Bft)
25.09.2023 12:45 20,7 C 58 % 1023,7 hPa 0,0 l/m 4,4 km/h (1 Bft) O-SO 105 12,1 C 20,7 C 11,3 km/h (2 Bft)
25.09.2023 12:40 20,7 C 58 % 1023,8 hPa 0,0 l/m 5,2 km/h (1 Bft) S-SW 213 12,1 C 20,7 C 11,3 km/h (2 Bft)
25.09.2023 12:35 20,6 C 58 % 1023,8 hPa 0,0 l/m 3,1 km/h (1 Bft) SO 145 12,0 C 20,6 C 6,4 km/h (2 Bft)
25.09.2023 12:30 20,5 C 59 % 1023,8 hPa 0,0 l/m 3,9 km/h (1 Bft) O-SO 103 12,2 C 20,5 C 12,9 km/h (3 Bft)
25.09.2023 12:25 20,4 C 59 % 1023,8 hPa 0,0 l/m 2,7 km/h (1 Bft) O-SO 112 12,1 C 20,4 C 9,7 km/h (2 Bft)
25.09.2023 12:20 20,2 C 60 % 1023,8 hPa 0,0 l/m 4,3 km/h (1 Bft) O 93 12,2 C 20,2 C 11,3 km/h (2 Bft)
25.09.2023 12:15 19,9 C 61 % 1023,8 hPa 0,0 l/m 2,8 km/h (1 Bft) O-SO 113 12,2 C 19,9 C 9,7 km/h (2 Bft)
25.09.2023 12:10 19,7 C 62 % 1023,8 hPa 0,0 l/m 3,1 km/h (1 Bft) O-SO 114 12,2 C 19,7 C 11,3 km/h (2 Bft)
25.09.2023 12:05 19,6 C 61 % 1023,9 hPa 0,0 l/m 4,2 km/h (1 Bft) O 84 11,9 C 19,6 C 11,3 km/h (2 Bft)
25.09.2023 12:00 19,3 C 63 % 1023,9 hPa 0,0 l/m 3,3 km/h (1 Bft) O-SO 105 12,1 C 19,3 C 9,7 km/h (2 Bft)
25.09.2023 11:55 19,2 C 63 % 1024,0 hPa 0,0 l/m 5,8 km/h (2 Bft) O 98 12,0 C 19,2 C 14,5 km/h (3 Bft)
25.09.2023 11:50 19,1 C 63 % 1023,9 hPa 0,0 l/m 5,0 km/h (1 Bft) O-SO 119 11,9 C 19,1 C 11,3 km/h (2 Bft)
25.09.2023 11:45 19,1 C 63 % 1024,1 hPa 0,0 l/m 4,2 km/h (1 Bft) O-SO 105 11,9 C 19,1 C 11,3 km/h (2 Bft)
25.09.2023 11:40 19,0 C 64 % 1024,1 hPa 0,0 l/m 4,1 km/h (1 Bft) O-NO 58 12,0 C 19,0 C 11,3 km/h (2 Bft)
25.09.2023 11:35 19,0 C 64 % 1024,2 hPa 0,0 l/m 4,6 km/h (1 Bft) O 99 12,0 C 19,0 C 12,9 km/h (3 Bft)
25.09.2023 11:30 18,9 C 64 % 1024,2 hPa 0,0 l/m 3,9 km/h (1 Bft) O-SO 108 11,9 C 18,9 C 11,3 km/h (2 Bft)
25.09.2023 11:25 18,7 C 64 % 1024,3 hPa 0,0 l/m 3,2 km/h (1 Bft) O 100 11,7 C 18,7 C 11,3 km/h (2 Bft)
25.09.2023 11:20 18,4 C 66 % 1024,2 hPa 0,0 l/m 2,6 km/h (1 Bft) O-SO 105 11,9 C 18,4 C 6,4 km/h (2 Bft)
25.09.2023 11:15 18,1 C 66 % 1024,2 hPa 0,0 l/m 3,1 km/h (1 Bft) O-SO 117 11,6 C 18,1 C 6,4 km/h (2 Bft)
25.09.2023 11:10 17,8 C 67 % 1024,1 hPa 0,0 l/m 4,7 km/h (1 Bft) O 94 11,6 C 17,8 C 11,3 km/h (2 Bft)
25.09.2023 11:05 17,5 C 67 % 1024,2 hPa 0,0 l/m 3,9 km/h (1 Bft) O-SO 114 11,3 C 17,5 C 12,9 km/h (3 Bft)
25.09.2023 11:00 17,3 C 68 % 1024,3 hPa 0,0 l/m 5,3 km/h (1 Bft) O 97 11,3 C 17,3 C 12,9 km/h (3 Bft)
25.09.2023 10:55 17,1 C 68 % 1024,5 hPa 0,0 l/m 4,2 km/h (1 Bft) O 95 11,1 C 17,1 C 11,3 km/h (2 Bft)
25.09.2023 10:50 16,8 C 69 % 1024,6 hPa 0,0 l/m 4,2 km/h (1 Bft) O-SO 107 11,1 C 16,8 C 12,9 km/h (3 Bft)
25.09.2023 10:45 16,6 C 69 % 1024,6 hPa 0,0 l/m 3,8 km/h (1 Bft) O-SO 110 10,9 C 16,6 C 9,7 km/h (2 Bft)
25.09.2023 10:40 16,2 C 70 % 1024,7 hPa 0,0 l/m 4,7 km/h (1 Bft) O-SO 114 10,7 C 16,2 C 9,7 km/h (2 Bft)
25.09.2023 10:35 16,0 C 70 % 1024,5 hPa 0,0 l/m 5,8 km/h (2 Bft) O 101 10,5 C 16,0 C 12,9 km/h (3 Bft)
25.09.2023 10:30 15,9 C 70 % 1024,5 hPa 0,0 l/m 8,0 km/h (2 Bft) O-NO 70 10,4 C 15,0 C 16,1 km/h (3 Bft)
25.09.2023 10:25 15,8 C 71 % 1024,4 hPa 0,0 l/m 5,7 km/h (2 Bft) O-SO 103 10,6 C 15,8 C 14,5 km/h (3 Bft)
25.09.2023 10:20 15,7 C 70 % 1024,5 hPa 0,0 l/m 5,4 km/h (2 Bft) O 98 10,2 C 15,7 C 12,9 km/h (3 Bft)
25.09.2023 10:15 15,6 C 71 % 1024,4 hPa 0,0 l/m 4,9 km/h (1 Bft) O-SO 119 10,4 C 15,6 C 12,9 km/h (3 Bft)
25.09.2023 10:10 15,4 C 71 % 1024,5 hPa 0,0 l/m 5,1 km/h (1 Bft) O 88 10,2 C 15,4 C 11,3 km/h (2 Bft)
25.09.2023 10:05 15,3 C 72 % 1024,6 hPa 0,0 l/m 4,5 km/h (1 Bft) O-SO 110 10,3 C 15,3 C 11,3 km/h (2 Bft)
25.09.2023 10:00 15,1 C 73 % 1024,7 hPa 0,0 l/m 4,1 km/h (1 Bft) O-SO 107 10,3 C 15,1 C 11,3 km/h (2 Bft)
25.09.2023 09:55 14,8 C 74 % 1024,8 hPa 0,0 l/m 3,1 km/h (1 Bft) SO 138 10,2 C 14,8 C 11,3 km/h (2 Bft)
25.09.2023 09:50 14,4 C 77 % 1024,7 hPa 0,0 l/m 1,8 km/h (1 Bft) SO 132 10,4 C 14,4 C 4,8 km/h (1 Bft)
25.09.2023 09:45 14,0 C 78 % 1024,8 hPa 0,0 l/m 3,9 km/h (1 Bft) O-SO 120 10,2 C 14,0 C 9,7 km/h (2 Bft)
25.09.2023 09:40 13,4 C 79 % 1024,8 hPa 0,0 l/m 5,3 km/h (1 Bft) O-SO 109 9,8 C 13,4 C 11,3 km/h (2 Bft)
25.09.2023 09:35 12,8 C 81 % 1025,0 hPa 0,0 l/m 3,3 km/h (1 Bft) O-SO 103 9,6 C 12,8 C 6,4 km/h (2 Bft)
25.09.2023 09:30 12,1 C 83 % 1025,0 hPa 0,0 l/m 2,4 km/h (1 Bft) O-SO 103 9,3 C 12,1 C 9,7 km/h (2 Bft)
25.09.2023 09:25 11,7 C 83 % 1025,0 hPa 0,0 l/m 1,6 km/h (1 Bft) SO 144 8,9 C 11,7 C 4,8 km/h (1 Bft)
25.09.2023 09:20 11,2 C 85 % 1025,0 hPa 0,0 l/m 1,6 km/h (1 Bft) S-SO 150 8,8 C 11,2 C 4,8 km/h (1 Bft)
25.09.2023 09:15 10,8 C 86 % 1025,0 hPa 0,0 l/m 1,1 km/h (1 Bft) S-SO 157 8,6 C 10,8 C 4,8 km/h (1 Bft)
25.09.2023 09:10 10,4 C 87 % 1025,1 hPa 0,0 l/m 0,6 km/h (0 Bft) S-SO 159 8,3 C 10,4 C 3,2 km/h (1 Bft)
25.09.2023 09:05 10,0 C 88 % 1025,0 hPa 0,0 l/m 0,4 km/h (0 Bft) S-SO 161 8,1 C 10,0 C 6,4 km/h (2 Bft)
25.09.2023 09:00 9,8 C 89 % 1024,9 hPa 0,0 l/m 0,2 km/h (0 Bft) S-SO 162 8,1 C 9,8 C 3,2 km/h (1 Bft)
25.09.2023 08:55 9,5 C 89 % 1025,0 hPa 0,0 l/m 0,1 km/h (0 Bft) S-SO 162 7,8 C 9,5 C 1,6 km/h (1 Bft)
25.09.2023 08:50 9,2 C 90 % 1024,9 hPa 0,0 l/m 1,3 km/h (1 Bft) S-SO 162 7,6 C 9,2 C 6,4 km/h (2 Bft)
25.09.2023 08:45 8,9 C 91 % 1024,8 hPa 0,0 l/m 2,0 km/h (1 Bft) S-SO 163 7,5 C 8,9 C 6,4 km/h (2 Bft)
25.09.2023 08:40 8,7 C 92 % 1024,9 hPa 0,0 l/m 0,6 km/h (0 Bft) S-SO 167 7,5 C 8,7 C 4,8 km/h (1 Bft)
25.09.2023 08:35 8,4 C 92 % 1024,9 hPa 0,0 l/m 0,3 km/h (0 Bft) S-SO 167 7,2 C 8,4 C 1,6 km/h (1 Bft)
25.09.2023 08:30 8,2 C 92 % 1025,0 hPa 0,0 l/m 0,0 km/h (0 Bft) S-SO 167 7,0 C 8,2 C 0,0 km/h (0 Bft)
25.09.2023 08:25 7,9 C 92 % 1025,1 hPa 0,0 l/m 0,0 km/h (0 Bft) S-SO 167 6,7 C 7,9 C 0,0 km/h (0 Bft)
25.09.2023 08:20 7,8 C 92 % 1025,0 hPa 0,0 l/m 0,0 km/h (0 Bft) S-SO 167 6,6 C 7,8 C 0,0 km/h (0 Bft)
25.09.2023 08:15 7,7 C 92 % 1024,9 hPa 0,0 l/m 0,0 km/h (0 Bft) S-SO 167 6,5 C 7,7 C 0,0 km/h (0 Bft)
25.09.2023 08:10 7,5 C 93 % 1024,8 hPa 0,0 l/m 0,8 km/h (0 Bft) S-SO 167 6,4 C 7,5 C 4,8 km/h (1 Bft)
25.09.2023 08:05 7,4 C 92 % 1024,9 hPa 0,0 l/m 0,8 km/h (0 Bft) S-SO 167 6,2 C 7,4 C 4,8 km/h (1 Bft)
25.09.2023 08:00 7,2 C 92 % 1024,7 hPa 0,0 l/m 0,0 km/h (0 Bft) S-SO 168 6,0 C 7,2 C 0,0 km/h (0 Bft)
25.09.2023 07:55 7,2 C 92 % 1024,7 hPa 0,0 l/m 0,0 km/h (0 Bft) S-SO 168 6,0 C 7,2 C 0,0 km/h (0 Bft)
25.09.2023 07:50 7,1 C 92 % 1024,8 hPa 0,0 l/m 0,0 km/h (0 Bft) S-SO 168 5,9 C 7,1 C 0,0 km/h (0 Bft)
25.09.2023 07:45 7,0 C 91 % 1024,9 hPa 0,0 l/m 0,0 km/h (0 Bft) S-SO 168 5,6 C 7,0 C 0,0 km/h (0 Bft)
25.09.2023 07:40 7,0 C 91 % 1024,9 hPa 0,0 l/m 0,0 km/h (0 Bft) S-SO 168 5,6 C 7,0 C 0,0 km/h (0 Bft)
25.09.2023 07:35 7,0 C 91 % 1024,8 hPa 0,0 l/m 0,0 km/h (0 Bft) S-SO 168 5,6 C 7,0 C 0,0 km/h (0 Bft)
25.09.2023 07:30 7,1 C 91 % 1024,8 hPa 0,0 l/m 0,0 km/h (0 Bft) S-SO 168 5,7 C 7,1 C 0,0 km/h (0 Bft)
25.09.2023 07:25 7,1 C 90 % 1024,9 hPa 0,0 l/m 0,0 km/h (0 Bft) S-SO 168 5,6 C 7,1 C 0,0 km/h (0 Bft)
25.09.2023 07:20 7,1 C 90 % 1024,8 hPa 0,0 l/m 0,0 km/h (0 Bft) S-SO 168 5,6 C 7,1 C 0,0 km/h (0 Bft)
25.09.2023 07:15 7,2 C 90 % 1024,7 hPa 0,0 l/m 0,0 km/h (0 Bft) S-SO 168 5,7 C 7,2 C 0,0 km/h (0 Bft)
25.09.2023 07:10 7,3 C 90 % 1024,7 hPa 0,0 l/m 0,0 km/h (0 Bft) S-SO 168 5,8 C 7,3 C 0,0 km/h (0 Bft)
25.09.2023 07:05 7,4 C 90 % 1024,7 hPa 0,0 l/m 0,0 km/h (0 Bft) S-SO 168 5,9 C 7,4 C 0,0 km/h (0 Bft)
25.09.2023 07:00 7,4 C 90 % 1024,4 hPa 0,0 l/m 0,0 km/h (0 Bft) S-SO 168 5,9 C 7,4 C 0,0 km/h (0 Bft)
25.09.2023 06:55 7,4 C 90 % 1024,4 hPa 0,0 l/m 0,0 km/h (0 Bft) S-SO 168 5,9 C 7,4 C 0,0 km/h (0 Bft)
25.09.2023 06:50 7,4 C 89 % 1024,3 hPa 0,0 l/m 0,0 km/h (0 Bft) S-SO 168 5,7 C 7,4 C 0,0 km/h (0 Bft)
25.09.2023 06:45 7,5 C 89 % 1024,3 hPa 0,0 l/m 0,0 km/h (0 Bft) S-SO 168 5,8 C 7,5 C 0,0 km/h (0 Bft)
25.09.2023 06:40 7,6 C 89 % 1024,3 hPa 0,0 l/m 0,0 km/h (0 Bft) S-SO 168 5,9 C 7,6 C 0,0 km/h (0 Bft)
25.09.2023 06:35 7,8 C 89 % 1024,2 hPa 0,0 l/m 0,0 km/h (0 Bft) S-SO 168 6,1 C 7,8 C 0,0 km/h (0 Bft)
25.09.2023 06:30 7,9 C 89 % 1024,1 hPa 0,0 l/m 0,0 km/h (0 Bft) S-SO 168 6,2 C 7,9 C 1,6 km/h (1 Bft)
25.09.2023 06:25 8,0 C 89 % 1024,1 hPa 0,0 l/m 0,1 km/h (0 Bft) S-SO 168 6,3 C 8,0 C 1,6 km/h (1 Bft)
25.09.2023 06:20 8,1 C 89 % 1024,1 hPa 0,0 l/m 0,2 km/h (0 Bft) S-SO 168 6,4 C 8,1 C 1,6 km/h (1 Bft)
25.09.2023 06:15 8,2 C 89 % 1024,0 hPa 0,0 l/m 0,0 km/h (0 Bft) S-SO 168 6,5 C 8,2 C 1,6 km/h (1 Bft)
25.09.2023 06:10 8,3 C 88 % 1024,1 hPa 0,0 l/m 0,0 km/h (0 Bft) S-SO 168 6,4 C 8,3 C 0,0 km/h (0 Bft)
25.09.2023 06:05 8,4 C 89 % 1024,1 hPa 0,0 l/m 0,1 km/h (0 Bft) S-SO 168 6,7 C 8,4 C 1,6 km/h (1 Bft)
25.09.2023 06:00 8,4 C 89 % 1023,9 hPa 0,0 l/m 1,7 km/h (1 Bft) S-SO 168 6,7 C 8,4 C 6,4 km/h (2 Bft)
25.09.2023 05:55 8,4 C 89 % 1023,7 hPa 0,0 l/m 0,9 km/h (0 Bft) S 169 6,7 C 8,4 C 3,2 km/h (1 Bft)
25.09.2023 05:50 8,4 C 88 % 1023,8 hPa 0,0 l/m 1,4 km/h (1 Bft) S 169 6,5 C 8,4 C 8,0 km/h (2 Bft)
25.09.2023 05:45 8,6 C 88 % 1023,8 hPa 0,0 l/m 0,6 km/h (0 Bft) S-SO 156 6,7 C 8,6 C 3,2 km/h (1 Bft)
25.09.2023 05:40 8,7 C 88 % 1023,8 hPa 0,0 l/m 1,8 km/h (1 Bft) S-SO 156 6,8 C 8,7 C 6,4 km/h (2 Bft)
25.09.2023 05:35 8,8 C 88 % 1023,9 hPa 0,0 l/m 0,1 km/h (0 Bft) SO 135 6,9 C 8,8 C 3,2 km/h (1 Bft)
25.09.2023 05:30 8,9 C 88 % 1023,9 hPa 0,0 l/m 0,2 km/h (0 Bft) SO 134 7,0 C 8,9 C 1,6 km/h (1 Bft)
25.09.2023 05:25 9,0 C 87 % 1023,8 hPa 0,0 l/m 0,0 km/h (0 Bft) SO 133 7,0 C 9,0 C 0,0 km/h (0 Bft)
25.09.2023 05:20 9,2 C 87 % 1023,9 hPa 0,0 l/m 0,0 km/h (0 Bft) SO 133 7,2 C 9,2 C 0,0 km/h (0 Bft)
25.09.2023 05:15 9,3 C 87 % 1023,8 hPa 0,0 l/m 0,0 km/h (0 Bft) SO 133 7,2 C 9,3 C 0,0 km/h (0 Bft)
25.09.2023 05:10 9,3 C 87 % 1023,6 hPa 0,0 l/m 0,4 km/h (0 Bft) SO 133 7,2 C 9,3 C 3,2 km/h (1 Bft)
25.09.2023 05:05 9,3 C 87 % 1023,6 hPa 0,0 l/m 0,0 km/h (0 Bft) SO 134 7,2 C 9,3 C 0,0 km/h (0 Bft)
25.09.2023 05:00 9,4 C 87 % 1023,5 hPa 0,0 l/m 0,0 km/h (0 Bft) SO 134 7,3 C 9,4 C 0,0 km/h (0 Bft)
25.09.2023 04:55 9,5 C 87 % 1023,5 hPa 0,0 l/m 0,0 km/h (0 Bft) SO 134 7,4 C 9,5 C 0,0 km/h (0 Bft)
25.09.2023 04:50 9,6 C 86 % 1023,5 hPa 0,0 l/m 0,0 km/h (0 Bft) SO 134 7,4 C 9,6 C 0,0 km/h (0 Bft)
25.09.2023 04:45 9,7 C 85 % 1023,5 hPa 0,0 l/m 0,0 km/h (0 Bft) SO 134 7,3 C 9,7 C 1,6 km/h (1 Bft)
25.09.2023 04:40 9,8 C 85 % 1023,4 hPa 0,0 l/m 0,1 km/h (0 Bft) SO 134 7,4 C 9,8 C 1,6 km/h (1 Bft)
25.09.2023 04:35 9,9 C 85 % 1023,4 hPa 0,0 l/m 0,0 km/h (0 Bft) SO 134 7,5 C 9,9 C 0,0 km/h (0 Bft)
25.09.2023 04:30 9,9 C 85 % 1023,3 hPa 0,0 l/m 0,0 km/h (0 Bft) SO 134 7,5 C 9,9 C 0,0 km/h (0 Bft)
25.09.2023 04:25 9,9 C 86 % 1023,3 hPa 0,0 l/m 0,6 km/h (0 Bft) SO 134 7,7 C 9,9 C 4,8 km/h (1 Bft)
25.09.2023 04:20 9,9 C 86 % 1023,2 hPa 0,0 l/m 1,3 km/h (1 Bft) O-SO 122 7,7 C 9,9 C 3,2 km/h (1 Bft)
25.09.2023 04:15 9,8 C 87 % 1023,3 hPa 0,0 l/m 2,3 km/h (1 Bft) O-SO 102 7,7 C 9,8 C 6,4 km/h (2 Bft)
25.09.2023 04:10 9,8 C 87 % 1023,5 hPa 0,0 l/m 1,8 km/h (1 Bft) SO 130 7,7 C 9,8 C 4,8 km/h (1 Bft)
25.09.2023 04:05 9,7 C 87 % 1023,5 hPa 0,0 l/m 1,8 km/h (1 Bft) SO 126 7,6 C 9,7 C 4,8 km/h (1 Bft)
25.09.2023 04:00 9,6 C 87 % 1023,6 hPa 0,0 l/m 1,1 km/h (1 Bft) O-SO 118 7,5 C 9,6 C 4,8 km/h (1 Bft)
25.09.2023 03:55 9,6 C 87 % 1023,6 hPa 0,0 l/m 0,2 km/h (0 Bft) O-SO 117 7,5 C 9,6 C 3,2 km/h (1 Bft)
25.09.2023 03:50 9,6 C 87 % 1023,7 hPa 0,0 l/m 0,8 km/h (0 Bft) O-SO 117 7,5 C 9,6 C 3,2 km/h (1 Bft)
25.09.2023 03:45 9,5 C 87 % 1023,7 hPa 0,0 l/m 1,2 km/h (1 Bft) O-SO 118 7,4 C 9,5 C 4,8 km/h (1 Bft)
25.09.2023 03:40 9,6 C 86 % 1023,8 hPa 0,0 l/m 0,4 km/h (0 Bft) O-SO 118 7,4 C 9,6 C 3,2 km/h (1 Bft)
25.09.2023 03:35 9,8 C 85 % 1023,8 hPa 0,0 l/m 0,6 km/h (0 Bft) O-SO 118 7,4 C 9,8 C 3,2 km/h (1 Bft)
25.09.2023 03:30 10,0 C 86 % 1023,8 hPa 0,0 l/m 0,3 km/h (0 Bft) O-SO 118 7,8 C 10,0 C 1,6 km/h (1 Bft)
25.09.2023 03:25 9,9 C 86 % 1023,7 hPa 0,0 l/m 0,8 km/h (0 Bft) O-SO 118 7,7 C 9,9 C 3,2 km/h (1 Bft)
25.09.2023 03:20 9,9 C 87 % 1023,7 hPa 0,0 l/m 0,7 km/h (0 Bft) O-SO 118 7,8 C 9,9 C 3,2 km/h (1 Bft)
25.09.2023 03:15 9,8 C 87 % 1023,7 hPa 0,0 l/m 1,1 km/h (1 Bft) O-SO 119 7,7 C 9,8 C 6,4 km/h (2 Bft)
25.09.2023 03:10 9,7 C 87 % 1023,7 hPa 0,0 l/m 1,7 km/h (1 Bft) SO 137 7,6 C 9,7 C 4,8 km/h (1 Bft)
25.09.2023 03:05 9,7 C 87 % 1023,7 hPa 0,0 l/m 1,0 km/h (0 Bft) SO 128 7,6 C 9,7 C 3,2 km/h (1 Bft)
25.09.2023 03:00 9,6 C 87 % 1023,7 hPa 0,0 l/m 1,7 km/h (1 Bft) SO 132 7,5 C 9,6 C 4,8 km/h (1 Bft)
25.09.2023 02:55 9,5 C 87 % 1023,9 hPa 0,0 l/m 0,2 km/h (0 Bft) SO 134 7,4 C 9,5 C 1,6 km/h (1 Bft)
25.09.2023 02:50 9,5 C 87 % 1024,0 hPa 0,0 l/m 0,1 km/h (0 Bft) SO 134 7,4 C 9,5 C 1,6 km/h (1 Bft)
25.09.2023 02:45 9,5 C 86 % 1023,9 hPa 0,0 l/m 0,2 km/h (0 Bft) SO 134 7,3 C 9,5 C 1,6 km/h (1 Bft)
25.09.2023 02:40 9,6 C 86 % 1023,9 hPa 0,0 l/m 0,3 km/h (0 Bft) SO 134 7,4 C 9,6 C 3,2 km/h (1 Bft)
25.09.2023 02:35 9,6 C 86 % 1023,8 hPa 0,0 l/m 0,0 km/h (0 Bft) SO 134 7,4 C 9,6 C 0,0 km/h (0 Bft)
25.09.2023 02:30 9,6 C 86 % 1023,9 hPa 0,0 l/m 0,1 km/h (0 Bft) SO 134 7,4 C 9,6 C 1,6 km/h (1 Bft)
25.09.2023 02:25 9,6 C 86 % 1023,9 hPa 0,0 l/m 0,0 km/h (0 Bft) SO 134 7,4 C 9,6 C 1,6 km/h (1 Bft)
25.09.2023 02:20 9,6 C 87 % 1023,9 hPa 0,0 l/m 0,3 km/h (0 Bft) SO 134 7,5 C 9,6 C 3,2 km/h (1 Bft)
25.09.2023 02:15 9,4 C 88 % 1023,9 hPa 0,0 l/m 1,2 km/h (1 Bft) SO 134 7,5 C 9,4 C 4,8 km/h (1 Bft)
25.09.2023 02:10 9,2 C 87 % 1024,0 hPa 0,0 l/m 0,0 km/h (0 Bft) SO 134 7,2 C 9,2 C 0,0 km/h (0 Bft)
25.09.2023 02:05 9,0 C 87 % 1024,1 hPa 0,0 l/m 0,0 km/h (0 Bft) SO 134 7,0 C 9,0 C 0,0 km/h (0 Bft)
25.09.2023 02:00 9,1 C 87 % 1024,1 hPa 0,0 l/m 0,0 km/h (0 Bft) SO 134 7,1 C 9,1 C 0,0 km/h (0 Bft)
25.09.2023 01:55 9,2 C 86 % 1024,0 hPa 0,0 l/m 0,0 km/h (0 Bft) SO 134 7,0 C 9,2 C 0,0 km/h (0 Bft)
25.09.2023 01:50 9,3 C 86 % 1024,1 hPa 0,0 l/m 0,0 km/h (0 Bft) SO 134 7,1 C 9,3 C 0,0 km/h (0 Bft)
25.09.2023 01:45 9,3 C 86 % 1024,0 hPa 0,0 l/m 0,0 km/h (0 Bft) SO 134 7,1 C 9,3 C 0,0 km/h (0 Bft)
25.09.2023 01:40 9,3 C 86 % 1024,0 hPa 0,0 l/m 0,0 km/h (0 Bft) SO 134 7,1 C 9,3 C 0,0 km/h (0 Bft)
25.09.2023 01:35 9,3 C 86 % 1024,1 hPa 0,0 l/m 0,0 km/h (0 Bft) SO 134 7,1 C 9,3 C 0,0 km/h (0 Bft)
25.09.2023 01:30 9,3 C 86 % 1024,1 hPa 0,0 l/m 0,0 km/h (0 Bft) SO 134 7,1 C 9,3 C 0,0 km/h (0 Bft)
25.09.2023 01:25 9,3 C 86 % 1024,1 hPa 0,0 l/m 0,0 km/h (0 Bft) SO 134 7,1 C 9,3 C 0,0 km/h (0 Bft)
25.09.2023 01:20 9,3 C 86 % 1024,2 hPa 0,0 l/m 0,0 km/h (0 Bft) SO 134 7,1 C 9,3 C 0,0 km/h (0 Bft)
25.09.2023 01:15 9,4 C 86 % 1024,3 hPa 0,0 l/m 0,0 km/h (0 Bft) SO 134 7,2 C 9,4 C 0,0 km/h (0 Bft)
25.09.2023 01:10 9,5 C 86 % 1024,2 hPa 0,0 l/m 0,0 km/h (0 Bft) SO 134 7,3 C 9,5 C 0,0 km/h (0 Bft)
25.09.2023 01:05 9,6 C 85 % 1024,2 hPa 0,0 l/m 0,0 km/h (0 Bft) SO 134 7,2 C 9,6 C 0,0 km/h (0 Bft)
25.09.2023 01:00 9,6 C 85 % 1024,3 hPa 0,0 l/m 0,0 km/h (0 Bft) SO 134 7,2 C 9,6 C 0,0 km/h (0 Bft)
25.09.2023 00:55 9,8 C 85 % 1024,4 hPa 0,0 l/m 0,0 km/h (0 Bft) SO 134 7,4 C 9,8 C 0,0 km/h (0 Bft)
25.09.2023 00:50 9,9 C 85 % 1024,4 hPa 0,0 l/m 0,0 km/h (0 Bft) SO 134 7,5 C 9,9 C 0,0 km/h (0 Bft)
25.09.2023 00:45 10,0 C 84 % 1024,5 hPa 0,0 l/m 0,0 km/h (0 Bft) SO 134 7,4 C 10,0 C 0,0 km/h (0 Bft)
25.09.2023 00:40 10,1 C 84 % 1024,4 hPa 0,0 l/m 0,0 km/h (0 Bft) SO 134 7,5 C 10,1 C 0,0 km/h (0 Bft)
25.09.2023 00:35 10,3 C 83 % 1024,5 hPa 0,0 l/m 0,0 km/h (0 Bft) SO 134 7,5 C 10,3 C 0,0 km/h (0 Bft)
25.09.2023 00:30 10,4 C 83 % 1024,5 hPa 0,0 l/m 0,0 km/h (0 Bft) SO 134 7,6 C 10,4 C 0,0 km/h (0 Bft)
25.09.2023 00:25 10,5 C 83 % 1024,6 hPa 0,0 l/m 0,0 km/h (0 Bft) SO 134 7,7 C 10,5 C 0,0 km/h (0 Bft)
25.09.2023 00:20 10,6 C 83 % 1024,4 hPa 0,0 l/m 0,0 km/h (0 Bft) SO 134 7,8 C 10,6 C 0,0 km/h (0 Bft)
25.09.2023 00:15 10,6 C 83 % 1024,4 hPa 0,0 l/m 0,0 km/h (0 Bft) SO 134 7,8 C 10,6 C 0,0 km/h (0 Bft)
25.09.2023 00:10 10,7 C 82 % 1024,6 hPa 0,0 l/m 0,0 km/h (0 Bft) SO 134 7,8 C 10,7 C 0,0 km/h (0 Bft)
25.09.2023 00:05 10,8 C 82 % 1024,4 hPa 0,0 l/m 0,0 km/h (0 Bft) SO 134 7,9 C 10,8 C 0,0 km/h (0 Bft)
25.09.2023 00:00 10,8 C 82 % 1024,4 hPa 0,0 l/m 0,0 km/h (0 Bft) SO 134 7,9 C 10,8 C 0,0 km/h (0 Bft)
24.09.2023 23:55 10,9 C 82 % 1024,6 hPa 0,0 l/m 0,0 km/h (0 Bft) SO 134 7,9 C 10,9 C 0,0 km/h (0 Bft)
24.09.2023 23:50 10,9 C 82 % 1024,6 hPa 0,0 l/m 0,0 km/h (0 Bft) SO 134 7,9 C 10,9 C 0,0 km/h (0 Bft)
24.09.2023 23:45 10,9 C 82 % 1024,7 hPa 0,0 l/m 0,0 km/h (0 Bft) SO 134 7,9 C 10,9 C 0,0 km/h (0 Bft)
24.09.2023 23:40 11,0 C 82 % 1024,7 hPa 0,0 l/m 0,0 km/h (0 Bft) SO 134 8,0 C 11,0 C 0,0 km/h (0 Bft)
24.09.2023 23:35 11,0 C 82 % 1024,7 hPa 0,0 l/m 0,0 km/h (0 Bft) SO 134 8,0 C 11,0 C 0,0 km/h (0 Bft)
24.09.2023 23:30 11,0 C 82 % 1024,6 hPa 0,0 l/m 0,0 km/h (0 Bft) SO 134 8,0 C 11,0 C 0,0 km/h (0 Bft)
24.09.2023 23:25 11,1 C 82 % 1024,6 hPa 0,0 l/m 0,0 km/h (0 Bft) SO 134 8,1 C 11,1 C 0,0 km/h (0 Bft)
24.09.2023 23:20 11,1 C 82 % 1024,7 hPa 0,0 l/m 0,0 km/h (0 Bft) SO 134 8,1 C 11,1 C 0,0 km/h (0 Bft)
24.09.2023 23:15 11,2 C 81 % 1024,7 hPa 0,0 l/m 0,0 km/h (0 Bft) SO 134 8,1 C 11,2 C 0,0 km/h (0 Bft)
24.09.2023 23:10 11,3 C 81 % 1024,9 hPa 0,0 l/m 0,0 km/h (0 Bft) SO 134 8,2 C 11,3 C 0,0 km/h (0 Bft)
24.09.2023 23:05 11,4 C 81 % 1024,9 hPa 0,0 l/m 0,0 km/h (0 Bft) SO 134 8,3 C 11,4 C 0,0 km/h (0 Bft)
24.09.2023 23:00 11,5 C 81 % 1025,0 hPa 0,0 l/m 0,0 km/h (0 Bft) SO 134 8,4 C 11,5 C 0,0 km/h (0 Bft)
24.09.2023 22:55 11,6 C 81 % 1025,1 hPa 0,0 l/m 0,0 km/h (0 Bft) SO 134 8,5 C 11,6 C 0,0 km/h (0 Bft)
24.09.2023 22:50 11,8 C 80 % 1025,0 hPa 0,0 l/m 0,0 km/h (0 Bft) SO 134 8,5 C 11,8 C 0,0 km/h (0 Bft)
24.09.2023 22:45 11,9 C 79 % 1025,1 hPa 0,0 l/m 0,0 km/h (0 Bft) SO 134 8,4 C 11,9 C 0,0 km/h (0 Bft)
24.09.2023 22:40 12,1 C 79 % 1025,2 hPa 0,0 l/m 0,0 km/h (0 Bft) SO 134 8,6 C 12,1 C 0,0 km/h (0 Bft)
24.09.2023 22:35 12,3 C 79 % 1025,2 hPa 0,0 l/m 0,0 km/h (0 Bft) SO 134 8,8 C 12,3 C 0,0 km/h (0 Bft)
24.09.2023 22:30 12,4 C 78 % 1025,2 hPa 0,0 l/m 0,0 km/h (0 Bft) SO 134 8,7 C 12,4 C 0,0 km/h (0 Bft)
24.09.2023 22:25 12,5 C 78 % 1025,2 hPa 0,0 l/m 0,0 km/h (0 Bft) SO 134 8,8 C 12,5 C 0,0 km/h (0 Bft)
24.09.2023 22:20 12,6 C 77 % 1025,3 hPa 0,0 l/m 0,0 km/h (0 Bft) SO 134 8,7 C 12,6 C 0,0 km/h (0 Bft)
24.09.2023 22:15 12,7 C 77 % 1025,3 hPa 0,0 l/m 0,0 km/h (0 Bft) SO 134 8,8 C 12,7 C 0,0 km/h (0 Bft)
24.09.2023 22:10 12,8 C 77 % 1025,2 hPa 0,0 l/m 0,0 km/h (0 Bft) SO 134 8,9 C 12,8 C 0,0 km/h (0 Bft)
24.09.2023 22:05 12,9 C 77 % 1025,4 hPa 0,0 l/m 0,0 km/h (0 Bft) SO 134 9,0 C 12,9 C 0,0 km/h (0 Bft)
24.09.2023 22:00 12,9 C 76 % 1025,4 hPa 0,0 l/m 0,0 km/h (0 Bft) SO 134 8,8 C 12,9 C 0,0 km/h (0 Bft)
24.09.2023 21:55 13,0 C 76 % 1025,4 hPa 0,0 l/m 0,0 km/h (0 Bft) SO 134 8,9 C 13,0 C 0,0 km/h (0 Bft)
24.09.2023 21:50 13,0 C 76 % 1025,3 hPa 0,0 l/m 0,0 km/h (0 Bft) SO 134 8,9 C 13,0 C 0,0 km/h (0 Bft)
24.09.2023 21:45 13,1 C 76 % 1025,3 hPa 0,0 l/m 0,0 km/h (0 Bft) SO 134 9,0 C 13,1 C 1,6 km/h (1 Bft)
24.09.2023 21:40 13,2 C 76 % 1025,3 hPa 0,0 l/m 0,1 km/h (0 Bft) SO 134 9,1 C 13,2 C 1,6 km/h (1 Bft)
24.09.2023 21:35 13,1 C 76 % 1025,3 hPa 0,0 l/m 0,2 km/h (0 Bft) SO 134 9,0 C 13,1 C 1,6 km/h (1 Bft)
24.09.2023 21:30 13,2 C 76 % 1025,3 hPa 0,0 l/m 0,1 km/h (0 Bft) SO 134 9,1 C 13,2 C 1,6 km/h (1 Bft)
24.09.2023 21:25 13,2 C 77 % 1025,2 hPa 0,0 l/m 0,5 km/h (0 Bft) SO 134 9,3 C 13,2 C 3,2 km/h (1 Bft)
24.09.2023 21:20 13,2 C 77 % 1025,3 hPa 0,0 l/m 0,7 km/h (0 Bft) SO 134 9,3 C 13,2 C 3,2 km/h (1 Bft)
24.09.2023 21:15 13,3 C 77 % 1025,3 hPa 0,0 l/m 0,1 km/h (0 Bft) SO 135 9,4 C 13,3 C 1,6 km/h (1 Bft)
24.09.2023 21:10 13,4 C 77 % 1025,4 hPa 0,0 l/m 0,1 km/h (0 Bft) SO 134 9,5 C 13,4 C 1,6 km/h (1 Bft)
24.09.2023 21:05 13,6 C 77 % 1025,5 hPa 0,0 l/m 0,1 km/h (0 Bft) SO 134 9,6 C 13,6 C 1,6 km/h (1 Bft)
24.09.2023 21:00 13,8 C 76 % 1025,5 hPa 0,0 l/m 0,2 km/h (0 Bft) SO 134 9,6 C 13,8 C 1,6 km/h (1 Bft)
24.09.2023 20:55 14,0 C 76 % 1025,5 hPa 0,0 l/m 0,4 km/h (0 Bft) SO 134 9,8 C 14,0 C 3,2 km/h (1 Bft)
24.09.2023 20:50 14,2 C 76 % 1025,6 hPa 0,0 l/m 0,1 km/h (0 Bft) SO 135 10,0 C 14,2 C 1,6 km/h (1 Bft)
24.09.2023 20:45 14,4 C 75 % 1025,7 hPa 0,0 l/m 0,7 km/h (0 Bft) SO 135 10,0 C 14,4 C 1,6 km/h (1 Bft)
24.09.2023 20:40 14,7 C 74 % 1025,7 hPa 0,0 l/m 0,5 km/h (0 Bft) SO 135 10,1 C 14,7 C 3,2 km/h (1 Bft)
24.09.2023 20:35 14,9 C 74 % 1025,7 hPa 0,0 l/m 0,0 km/h (0 Bft) SO 135 10,3 C 14,9 C 0,0 km/h (0 Bft)
24.09.2023 20:30 15,1 C 73 % 1025,7 hPa 0,0 l/m 0,0 km/h (0 Bft) SO 135 10,3 C 15,1 C 0,0 km/h (0 Bft)
24.09.2023 20:25 15,4 C 72 % 1025,6 hPa 0,0 l/m 0,0 km/h (0 Bft) SO 135 10,4 C 15,4 C 0,0 km/h (0 Bft)
24.09.2023 20:20 15,6 C 71 % 1025,5 hPa 0,0 l/m 0,0 km/h (0 Bft) SO 135 10,4 C 15,6 C 0,0 km/h (0 Bft)
24.09.2023 20:15 15,8 C 71 % 1025,5 hPa 0,0 l/m 0,0 km/h (0 Bft) SO 135 10,6 C 15,8 C 0,0 km/h (0 Bft)
24.09.2023 20:10 16,0 C 71 % 1025,5 hPa 0,0 l/m 0,0 km/h (0 Bft) SO 135 10,7 C 16,0 C 0,0 km/h (0 Bft)
24.09.2023 20:05 16,2 C 70 % 1025,5 hPa 0,0 l/m 0,0 km/h (0 Bft) SO 135 10,7 C 16,2 C 0,0 km/h (0 Bft)
24.09.2023 20:00 16,3 C 69 % 1025,4 hPa 0,0 l/m 0,0 km/h (0 Bft) SO 135 10,6 C 16,3 C 0,0 km/h (0 Bft)
24.09.2023 19:55 16,5 C 68 % 1025,3 hPa 0,0 l/m 0,0 km/h (0 Bft) SO 135 10,6 C 16,5 C 0,0 km/h (0 Bft)
24.09.2023 19:50 16,8 C 68 % 1025,3 hPa 0,0 l/m 0,1 km/h (0 Bft) SO 135 10,9 C 16,8 C 1,6 km/h (1 Bft)
24.09.2023 19:45 17,0 C 67 % 1025,2 hPa 0,0 l/m 0,4 km/h (0 Bft) SO 135 10,8 C 17,0 C 3,2 km/h (1 Bft)
24.09.2023 19:40 17,3 C 66 % 1025,2 hPa 0,0 l/m 0,3 km/h (0 Bft) SO 135 10,9 C 17,3 C 1,6 km/h (1 Bft)
24.09.2023 19:35 17,6 C 65 % 1025,2 hPa 0,0 l/m 0,4 km/h (0 Bft) SO 136 10,9 C 17,6 C 3,2 km/h (1 Bft)
24.09.2023 19:30 17,8 C 63 % 1025,1 hPa 0,0 l/m 0,7 km/h (0 Bft) SO 136 10,7 C 17,8 C 3,2 km/h (1 Bft)
24.09.2023 19:25 18,1 C 62 % 1025,2 hPa 0,0 l/m 0,7 km/h (0 Bft) SO 136 10,7 C 18,1 C 3,2 km/h (1 Bft)
24.09.2023 19:20 18,4 C 61 % 1025,1 hPa 0,0 l/m 1,7 km/h (1 Bft) SO 135 10,7 C 18,4 C 4,8 km/h (1 Bft)
24.09.2023 19:15 18,8 C 60 % 1025,1 hPa 0,0 l/m 2,3 km/h (1 Bft) SO 144 10,9 C 18,8 C 4,8 km/h (1 Bft)
24.09.2023 19:10 19,1 C 59 % 1025,1 hPa 0,0 l/m 1,4 km/h (1 Bft) SO 145 10,9 C 19,1 C 4,8 km/h (1 Bft)
24.09.2023 19:05 19,4 C 58 % 1025,0 hPa 0,0 l/m 1,7 km/h (1 Bft) S-SO 156 10,9 C 19,4 C 6,4 km/h (2 Bft)
24.09.2023 19:00 19,6 C 57 % 1025,0 hPa 0,0 l/m 2,3 km/h (1 Bft) S-SO 159 10,8 C 19,6 C 6,4 km/h (2 Bft)
24.09.2023 18:55 19,8 C 56 % 1024,8 hPa 0,0 l/m 2,7 km/h (1 Bft) O-SO 111 10,8 C 19,8 C 9,7 km/h (2 Bft)
24.09.2023 18:50 19,9 C 55 % 1024,9 hPa 0,0 l/m 3,2 km/h (1 Bft) O 81 10,6 C 19,9 C 8,0 km/h (2 Bft)
24.09.2023 18:45 20,0 C 55 % 1024,9 hPa 0,0 l/m 2,7 km/h (1 Bft) O-SO 103 10,7 C 20,0 C 6,4 km/h (2 Bft)
24.09.2023 18:40 20,1 C 54 % 1024,8 hPa 0,0 l/m 3,4 km/h (1 Bft) O 97 10,5 C 20,1 C 11,3 km/h (2 Bft)
24.09.2023 18:35 20,2 C 55 % 1024,9 hPa 0,0 l/m 3,4 km/h (1 Bft) O 82 10,9 C 20,2 C 11,3 km/h (2 Bft)
24.09.2023 18:30 20,3 C 55 % 1024,9 hPa 0,0 l/m 4,5 km/h (1 Bft) O-SO 117 11,0 C 20,3 C 12,9 km/h (3 Bft)
24.09.2023 18:25 20,5 C 55 % 1024,8 hPa 0,0 l/m 4,4 km/h (1 Bft) O-SO 105 11,1 C 20,5 C 12,9 km/h (3 Bft)
24.09.2023 18:20 20,5 C 56 % 1024,7 hPa 0,0 l/m 2,2 km/h (1 Bft) S 190 11,4 C 20,5 C 6,4 km/h (2 Bft)
24.09.2023 18:15 20,5 C 55 % 1024,7 hPa 0,0 l/m 3,8 km/h (1 Bft) SO 129 11,1 C 20,5 C 9,7 km/h (2 Bft)
24.09.2023 18:10 20,6 C 54 % 1024,7 hPa 0,0 l/m 4,2 km/h (1 Bft) O-SO 107 11,0 C 20,6 C 12,9 km/h (3 Bft)
24.09.2023 18:05 20,7 C 54 % 1024,7 hPa 0,0 l/m 5,5 km/h (2 Bft) SO 134 11,1 C 20,7 C 19,3 km/h (3 Bft)
24.09.2023 18:00 20,9 C 54 % 1024,7 hPa 0,0 l/m 4,4 km/h (1 Bft) O-SO 109 11,2 C 20,9 C 11,3 km/h (2 Bft)
24.09.2023 17:55 20,9 C 54 % 1024,7 hPa 0,0 l/m 6,5 km/h (2 Bft) SO 141 11,2 C 20,9 C 17,7 km/h (3 Bft)
24.09.2023 17:50 21,1 C 54 % 1024,8 hPa 0,0 l/m 5,9 km/h (2 Bft) O-SO 110 11,4 C 21,1 C 16,1 km/h (3 Bft)
24.09.2023 17:45 21,4 C 53 % 1024,9 hPa 0,0 l/m 5,0 km/h (1 Bft) SO 124 11,4 C 21,4 C 14,5 km/h (3 Bft)
24.09.2023 17:40 21,6 C 51 % 1025,0 hPa 0,0 l/m 3,6 km/h (1 Bft) O-SO 104 11,0 C 21,6 C 11,3 km/h (2 Bft)
24.09.2023 17:35 21,6 C 50 % 1024,9 hPa 0,0 l/m 4,2 km/h (1 Bft) S-SW 196 10,7 C 21,6 C 9,7 km/h (2 Bft)
24.09.2023 17:30 21,8 C 50 % 1025,0 hPa 0,0 l/m 3,2 km/h (1 Bft) S-SW 196 10,9 C 21,8 C 12,9 km/h (3 Bft)
24.09.2023 17:25 21,9 C 50 % 1025,0 hPa 0,0 l/m 3,4 km/h (1 Bft) SO 144 11,0 C 21,9 C 12,9 km/h (3 Bft)
24.09.2023 17:20 21,9 C 49 % 1025,1 hPa 0,0 l/m 3,2 km/h (1 Bft) O 101 10,7 C 21,9 C 8,0 km/h (2 Bft)
24.09.2023 17:15 22,1 C 49 % 1025,2 hPa 0,0 l/m 5,4 km/h (2 Bft) O 97 10,9 C 22,1 C 17,7 km/h (3 Bft)
24.09.2023 17:10 22,3 C 49 % 1025,3 hPa 0,0 l/m 2,5 km/h (1 Bft) S 191 11,1 C 22,3 C 14,5 km/h (3 Bft)
24.09.2023 17:05 22,3 C 49 % 1025,4 hPa 0,0 l/m 2,4 km/h (1 Bft) O 86 11,1 C 22,3 C 6,4 km/h (2 Bft)
24.09.2023 17:00 22,4 C 48 % 1025,4 hPa 0,0 l/m 4,7 km/h (1 Bft) S-SW 208 10,8 C 22,4 C 11,3 km/h (2 Bft)
24.09.2023 16:55 22,6 C 47 % 1025,5 hPa 0,0 l/m 3,0 km/h (1 Bft) S-SW 213 10,7 C 22,6 C 6,4 km/h (2 Bft)
24.09.2023 16:50 22,7 C 47 % 1025,6 hPa 0,0 l/m 3,3 km/h (1 Bft) S-SW 213 10,8 C 22,7 C 6,4 km/h (2 Bft)
24.09.2023 16:45 22,6 C 46 % 1025,6 hPa 0,0 l/m 1,5 km/h (1 Bft) S-SW 198 10,4 C 22,6 C 6,4 km/h (2 Bft)
24.09.2023 16:40 22,6 C 45 % 1025,7 hPa 0,0 l/m 3,2 km/h (1 Bft) O-SO 116 10,1 C 22,6 C 8,0 km/h (2 Bft)
24.09.2023 16:35 22,6 C 45 % 1025,7 hPa 0,0 l/m 3,2 km/h (1 Bft) S-SW 212 10,1 C 22,6 C 11,3 km/h (2 Bft)
24.09.2023 16:30 22,6 C 46 % 1025,7 hPa 0,0 l/m 2,6 km/h (1 Bft) SO 126 10,4 C 22,6 C 11,3 km/h (2 Bft)
24.09.2023 16:25 22,4 C 45 % 1025,7 hPa 0,0 l/m 3,1 km/h (1 Bft) S-SO 155 9,9 C 22,4 C 12,9 km/h (3 Bft)
24.09.2023 16:20 22,4 C 45 % 1025,6 hPa 0,0 l/m 3,0 km/h (1 Bft) SO 126 9,9 C 22,4 C 11,3 km/h (2 Bft)
24.09.2023 16:15 22,7 C 46 % 1025,7 hPa 0,0 l/m 4,6 km/h (1 Bft) O 79 10,5 C 22,7 C 12,9 km/h (3 Bft)
24.09.2023 16:10 22,8 C 44 % 1025,8 hPa 0,0 l/m 2,7 km/h (1 Bft) W 265 9,9 C 22,8 C 6,4 km/h (2 Bft)
24.09.2023 16:05 22,7 C 44 % 1025,8 hPa 0,0 l/m 2,5 km/h (1 Bft) SO 132 9,8 C 22,7 C 8,0 km/h (2 Bft)
24.09.2023 16:00 22,4 C 44 % 1025,8 hPa 0,0 l/m 3,0 km/h (1 Bft) SO 144 9,5 C 22,4 C 8,0 km/h (2 Bft)
24.09.2023 15:55 22,3 C 46 % 1025,8 hPa 0,0 l/m 3,2 km/h (1 Bft) S-SW 196 10,1 C 22,3 C 8,0 km/h (2 Bft)
24.09.2023 15:50 22,2 C 45 % 1025,9 hPa 0,0 l/m 3,0 km/h (1 Bft) S-SW 202 9,7 C 22,2 C 8,0 km/h (2 Bft)
24.09.2023 15:45 22,2 C 45 % 1025,8 hPa 0,0 l/m 6,4 km/h (2 Bft) W-SW 252 9,7 C 22,2 C 12,9 km/h (3 Bft)
24.09.2023 15:40 22,6 C 45 % 1025,9 hPa 0,0 l/m 2,3 km/h (1 Bft) W-SW 252 10,1 C 22,6 C 6,4 km/h (2 Bft)
24.09.2023 15:35 22,4 C 45 % 1025,9 hPa 0,0 l/m 1,8 km/h (1 Bft) S-SW 200 9,9 C 22,4 C 4,8 km/h (1 Bft)
24.09.2023 15:30 22,3 C 45 % 1025,9 hPa 0,0 l/m 2,9 km/h (1 Bft) SO 142 9,8 C 22,3 C 6,4 km/h (2 Bft)
24.09.2023 15:25 22,3 C 45 % 1026,0 hPa 0,0 l/m 1,8 km/h (1 Bft) O-SO 109 9,8 C 22,3 C 6,4 km/h (2 Bft)
24.09.2023 15:20 22,2 C 46 % 1026,0 hPa 0,0 l/m 2,9 km/h (1 Bft) SW 230 10,0 C 22,2 C 8,0 km/h (2 Bft)
24.09.2023 15:15 22,2 C 45 % 1026,0 hPa 0,0 l/m 3,6 km/h (1 Bft) S-SW 193 9,7 C 22,2 C 8,0 km/h (2 Bft)
24.09.2023 15:10 22,1 C 46 % 1026,0 hPa 0,0 l/m 3,5 km/h (1 Bft) S-SW 204 9,9 C 22,1 C 11,3 km/h (2 Bft)
24.09.2023 15:05 22,0 C 46 % 1026,0 hPa 0,0 l/m 3,4 km/h (1 Bft) SW 236 9,8 C 22,0 C 11,3 km/h (2 Bft)
24.09.2023 15:00 22,0 C 45 % 1026,1 hPa 0,0 l/m 4,9 km/h (1 Bft) S-SW 198 9,5 C 22,0 C 11,3 km/h (2 Bft)
24.09.2023 14:55 22,1 C 46 % 1026,1 hPa 0,0 l/m 3,9 km/h (1 Bft) SW 235 9,9 C 22,1 C 9,7 km/h (2 Bft)
24.09.2023 14:50 22,0 C 48 % 1026,0 hPa 0,0 l/m 2,8 km/h (1 Bft) S 184 10,5 C 22,0 C 8,0 km/h (2 Bft)
24.09.2023 14:45 21,9 C 47 % 1026,1 hPa 0,0 l/m 3,5 km/h (1 Bft) SW 234 10,1 C 21,9 C 9,7 km/h (2 Bft)
24.09.2023 14:40 21,9 C 46 % 1026,0 hPa 0,0 l/m 2,8 km/h (1 Bft) O-SO 112 9,7 C 21,9 C 6,4 km/h (2 Bft)
24.09.2023 14:35 21,8 C 47 % 1026,1 hPa 0,0 l/m 3,3 km/h (1 Bft) S-SW 196 10,0 C 21,8 C 14,5 km/h (3 Bft)
24.09.2023 14:30 21,6 C 47 % 1026,1 hPa 0,0 l/m 3,7 km/h (1 Bft) S-SW 192 9,8 C 21,6 C 9,7 km/h (2 Bft)
24.09.2023 14:25 21,6 C 47 % 1026,1 hPa 0,0 l/m 3,4 km/h (1 Bft) SO 128 9,8 C 21,6 C 11,3 km/h (2 Bft)
24.09.2023 14:20 21,6 C 47 % 1026,2 hPa 0,0 l/m 2,8 km/h (1 Bft) W-SW 240 9,8 C 21,6 C 9,7 km/h (2 Bft)
24.09.2023 14:15 21,4 C 47 % 1026,2 hPa 0,0 l/m 3,4 km/h (1 Bft) S 182 9,6 C 21,4 C 12,9 km/h (3 Bft)
24.09.2023 14:10 21,3 C 51 % 1026,2 hPa 0,0 l/m 3,5 km/h (1 Bft) S-SW 194 10,7 C 21,3 C 14,5 km/h (3 Bft)
24.09.2023 14:05 21,3 C 48 % 1026,3 hPa 0,0 l/m 3,8 km/h (1 Bft) SW 226 9,8 C 21,3 C 9,7 km/h (2 Bft)
24.09.2023 14:00 21,4 C 49 % 1026,4 hPa 0,0 l/m 5,3 km/h (1 Bft) O-SO 112 10,2 C 21,4 C 12,9 km/h (3 Bft)
24.09.2023 13:55 21,3 C 52 % 1026,4 hPa 0,0 l/m 2,5 km/h (1 Bft) S-SO 164 11,0 C 21,3 C 9,7 km/h (2 Bft)
24.09.2023 13:50 21,2 C 51 % 1026,4 hPa 0,0 l/m 1,7 km/h (1 Bft) O-SO 116 10,7 C 21,2 C 6,4 km/h (2 Bft)
24.09.2023 13:45 21,1 C 51 % 1026,5 hPa 0,0 l/m 2,6 km/h (1 Bft) O-SO 118 10,6 C 21,1 C 9,7 km/h (2 Bft)
24.09.2023 13:40 21,1 C 52 % 1026,8 hPa 0,0 l/m 3,8 km/h (1 Bft) S-SO 152 10,9 C 21,1 C 9,7 km/h (2 Bft)
24.09.2023 13:35 21,1 C 52 % 1026,8 hPa 0,0 l/m 4,1 km/h (1 Bft) S 187 10,9 C 21,1 C 11,3 km/h (2 Bft)
24.09.2023 13:30 21,1 C 54 % 1026,8 hPa 0,0 l/m 2,9 km/h (1 Bft) S 183 11,4 C 21,1 C 6,4 km/h (2 Bft)
24.09.2023 13:25 20,9 C 54 % 1026,9 hPa 0,0 l/m 2,7 km/h (1 Bft) S-SW 202 11,2 C 20,9 C 9,7 km/h (2 Bft)
24.09.2023 13:20 20,7 C 54 % 1026,9 hPa 0,0 l/m 3,0 km/h (1 Bft) SW 229 11,1 C 20,7 C 8,0 km/h (2 Bft)
24.09.2023 13:15 20,4 C 54 % 1026,9 hPa 0,0 l/m 2,7 km/h (1 Bft) O 101 10,8 C 20,4 C 9,7 km/h (2 Bft)
24.09.2023 13:10 20,2 C 54 % 1027,1 hPa 0,0 l/m 2,7 km/h (1 Bft) S-SW 194 10,6 C 20,2 C 8,0 km/h (2 Bft)
24.09.2023 13:05 20,0 C 56 % 1027,0 hPa 0,0 l/m 3,4 km/h (1 Bft) W-SW 240 11,0 C 20,0 C 9,7 km/h (2 Bft)
24.09.2023 13:00 19,9 C 57 % 1027,1 hPa 0,0 l/m 5,0 km/h (1 Bft) W-SW 239 11,1 C 19,9 C 14,5 km/h (3 Bft)
_ Min-Zeit 07:35 16:00 04:20 - 19:55 - - 07:20 07:35 19:55
Minimum _ 6,9 C 44 % 1023,2 hPa - 0,0 km/h (0 Bft) - - 5,6 C 7,0 C 0,0 km/h (0 Bft)
_ Max-Zeit 16:10 08:10 13:00 13:00 10:30 - - 12:55 16:10 18:05
Maximum _ 22,8 C 93 % 1027,1 hPa 0,0 l/m 8,0 km/h
O-NO (2 Bft)
- - 12,4 C 22,8 C 19,3 km/h
O-SO (3 Bft)
Durchschnitt _ 14,9 C 71 % 1025,0 hPa #0,0 l/m 1,9 km/h (1 Bft) SO - 9,2 C 14,9 C 5,8 km/h (2 Bft)
www.klaudt.eu